sensor_id;sensor_type;location;lat;lon;timestamp;pressure;altitude;pressure_sealevel;temperature;humidity
17521;BME280;8878;-33.370;-70.552;2023-09-12T00:02:26;92415.84;;;12.18;100.00
17521;BME280;8878;-33.370;-70.552;2023-09-12T00:04:56;92415.63;;;12.04;100.00
17521;BME280;8878;-33.370;-70.552;2023-09-12T00:07:25;92423.28;;;12.01;100.00
17521;BME280;8878;-33.370;-70.552;2023-09-12T00:09:54;92418.28;;;11.99;100.00
17521;BME280;8878;-33.370;-70.552;2023-09-12T00:12:24;92424.09;;;11.91;100.00
17521;BME280;8878;-33.370;-70.552;2023-09-12T00:14:54;92412.97;;;11.94;100.00
17521;BME280;8878;-33.370;-70.552;2023-09-12T00:17:25;92416.66;;;12.03;100.00
17521;BME280;8878;-33.370;-70.552;2023-09-12T00:19:55;92417.47;;;11.94;100.00
17521;BME280;8878;-33.370;-70.552;2023-09-12T00:22:24;92411.94;;;11.75;100.00
17521;BME280;8878;-33.370;-70.552;2023-09-12T00:24:54;92410.59;;;11.67;100.00
17521;BME280;8878;-33.370;-70.552;2023-09-12T00:27:23;92424.38;;;11.49;100.00
17521;BME280;8878;-33.370;-70.552;2023-09-12T00:29:53;92416.41;;;11.59;100.00
17521;BME280;8878;-33.370;-70.552;2023-09-12T00:32:22;92425.94;;;11.65;100.00
17521;BME280;8878;-33.370;-70.552;2023-09-12T00:34:53;92420.13;;;11.73;100.00
17521;BME280;8878;-33.370;-70.552;2023-09-12T00:37:22;92430.16;;;11.51;100.00
17521;BME280;8878;-33.370;-70.552;2023-09-12T00:39:52;92432.25;;;11.44;100.00
17521;BME280;8878;-33.370;-70.552;2023-09-12T00:42:25;92418.00;;;11.25;100.00
17521;BME280;8878;-33.370;-70.552;2023-09-12T00:44:55;92428.84;;;11.28;100.00
17521;BME280;8878;-33.370;-70.552;2023-09-12T00:47:27;92428.03;;;11.28;100.00
17521;BME280;8878;-33.370;-70.552;2023-09-12T00:50:00;92427.50;;;11.26;100.00
17521;BME280;8878;-33.370;-70.552;2023-09-12T00:52:30;92436.50;;;11.35;100.00
17521;BME280;8878;-33.370;-70.552;2023-09-12T00:55:01;92431.22;;;11.35;100.00
17521;BME280;8878;-33.370;-70.552;2023-09-12T00:57:32;92428.84;;;11.28;100.00
17521;BME280;8878;-33.370;-70.552;2023-09-12T01:00:04;92427.00;;;11.29;100.00
17521;BME280;8878;-33.370;-70.552;2023-09-12T01:02:39;92421.97;;;11.27;100.00
17521;BME280;8878;-33.370;-70.552;2023-09-12T01:05:15;92430.44;;;11.29;100.00
17521;BME280;8878;-33.370;-70.552;2023-09-12T01:07:45;92437.53;;;11.24;100.00
17521;BME280;8878;-33.370;-70.552;2023-09-12T01:10:15;92433.88;;;11.35;100.00
17521;BME280;8878;-33.370;-70.552;2023-09-12T01:12:45;92442.84;;;11.44;100.00
17521;BME280;8878;-33.370;-70.552;2023-09-12T01:15:14;92436.25;;;11.42;100.00
17521;BME280;8878;-33.370;-70.552;2023-09-12T01:17:44;92433.84;;;11.45;100.00
17521;BME280;8878;-33.370;-70.552;2023-09-12T01:20:21;92432.03;;;11.56;100.00
17521;BME280;8878;-33.370;-70.552;2023-09-12T01:23:21;92431.22;;;11.55;100.00
17521;BME280;8878;-33.370;-70.552;2023-09-12T01:29:07;92432.00;;;11.20;100.00
17521;BME280;8878;-33.370;-70.552;2023-09-12T01:31:38;92434.38;;;11.22;100.00
17521;BME280;8878;-33.370;-70.552;2023-09-12T01:34:11;92437.00;;;11.37;100.00
17521;BME280;8878;-33.370;-70.552;2023-09-12T01:36:41;92433.34;;;11.43;100.00
17521;BME280;8878;-33.370;-70.552;2023-09-12T01:39:10;92437.56;;;11.29;100.00
17521;BME280;8878;-33.370;-70.552;2023-09-12T01:41:40;92435.94;;;11.18;100.00
17521;BME280;8878;-33.370;-70.552;2023-09-12T01:44:15;92429.34;;;11.25;100.00
17521;BME280;8878;-33.370;-70.552;2023-09-12T01:46:46;92438.59;;;11.38;100.00
17521;BME280;8878;-33.370;-70.552;2023-09-12T01:49:19;92432.00;;;11.46;100.00
17521;BME280;8878;-33.370;-70.552;2023-09-12T01:51:50;92437.31;;;11.35;100.00
17521;BME280;8878;-33.370;-70.552;2023-09-12T01:54:20;92433.06;;;11.34;100.00
17521;BME280;8878;-33.370;-70.552;2023-09-12T01:56:52;92426.44;;;11.37;100.00
17521;BME280;8878;-33.370;-70.552;2023-09-12T01:59:26;92431.47;;;11.18;100.00
17521;BME280;8878;-33.370;-70.552;2023-09-12T02:01:55;92421.91;;;11.02;100.00
17521;BME280;8878;-33.370;-70.552;2023-09-12T02:04:25;92413.75;;;11.09;100.00
17521;BME280;8878;-33.370;-70.552;2023-09-12T02:06:54;92417.19;;;11.09;100.00
17521;BME280;8878;-33.370;-70.552;2023-09-12T02:09:25;92418.72;;;10.80;100.00
17521;BME280;8878;-33.370;-70.552;2023-09-12T02:11:54;92412.16;;;10.92;100.00
17521;BME280;8878;-33.370;-70.552;2023-09-12T02:14:26;92403.94;;;10.89;100.00
17521;BME280;8878;-33.370;-70.552;2023-09-12T02:16:56;92414.53;;;10.94;100.00
17521;BME280;8878;-33.370;-70.552;2023-09-12T02:19:25;92411.59;;;10.85;100.00
17521;BME280;8878;-33.370;-70.552;2023-09-12T02:21:54;92407.34;;;10.74;100.00
17521;BME280;8878;-33.370;-70.552;2023-09-12T02:24:24;92407.09;;;10.81;100.00
17521;BME280;8878;-33.370;-70.552;2023-09-12T02:26:53;92404.69;;;10.74;100.00
17521;BME280;8878;-33.370;-70.552;2023-09-12T02:29:23;92405.75;;;10.73;100.00
17521;BME280;8878;-33.370;-70.552;2023-09-12T02:31:55;92403.09;;;10.73;100.00
17521;BME280;8878;-33.370;-70.552;2023-09-12T02:34:24;92401.25;;;10.58;100.00
17521;BME280;8878;-33.370;-70.552;2023-09-12T02:36:54;92405.72;;;10.58;100.00
17521;BME280;8878;-33.370;-70.552;2023-09-12T02:39:23;92397.56;;;10.70;100.00
17521;BME280;8878;-33.370;-70.552;2023-09-12T02:41:52;92403.66;;;10.70;99.25
17521;BME280;8878;-33.370;-70.552;2023-09-12T02:44:22;92412.81;;;10.52;100.00
17521;BME280;8878;-33.370;-70.552;2023-09-12T02:46:53;92398.09;;;10.67;100.00
17521;BME280;8878;-33.370;-70.552;2023-09-12T02:49:22;92395.44;;;10.62;99.89
17521;BME280;8878;-33.370;-70.552;2023-09-12T02:51:52;92409.41;;;10.57;100.00
17521;BME280;8878;-33.370;-70.552;2023-09-12T02:54:22;92405.97;;;10.51;99.78
17521;BME280;8878;-33.370;-70.552;2023-09-12T02:56:51;92408.56;;;10.46;99.78
17521;BME280;8878;-33.370;-70.552;2023-09-12T02:59:21;92405.13;;;10.41;99.96
17521;BME280;8878;-33.370;-70.552;2023-09-12T03:01:52;92408.00;;;10.29;100.00
17521;BME280;8878;-33.370;-70.552;2023-09-12T03:04:21;92399.22;;;10.18;100.00
17521;BME280;8878;-33.370;-70.552;2023-09-12T03:06:51;92395.28;;;10.21;100.00
17521;BME280;8878;-33.370;-70.552;2023-09-12T03:09:20;92406.16;;;10.30;100.00
17521;BME280;8878;-33.370;-70.552;2023-09-12T03:11:50;92395.63;;;10.35;100.00
17521;BME280;8878;-33.370;-70.552;2023-09-12T03:14:19;92394.31;;;10.37;99.24
17521;BME280;8878;-33.370;-70.552;2023-09-12T03:16:49;92399.06;;;10.40;98.47
17521;BME280;8878;-33.370;-70.552;2023-09-12T03:19:20;92395.88;;;10.38;98.78
17521;BME280;8878;-33.370;-70.552;2023-09-12T03:21:49;92397.50;;;10.49;97.60
17521;BME280;8878;-33.370;-70.552;2023-09-12T03:24:18;92396.72;;;10.54;96.39
17521;BME280;8878;-33.370;-70.552;2023-09-12T03:26:50;92399.28;;;10.34;96.99
17521;BME280;8878;-33.370;-70.552;2023-09-12T03:29:20;92390.28;;;10.19;95.14
17521;BME280;8878;-33.370;-70.552;2023-09-12T03:31:49;92402.13;;;10.17;95.41
17521;BME280;8878;-33.370;-70.552;2023-09-12T03:34:21;92393.97;;;10.24;95.52
17521;BME280;8878;-33.370;-70.552;2023-09-12T03:36:50;92393.16;;;10.18;95.22
17521;BME280;8878;-33.370;-70.552;2023-09-12T03:39:19;92399.78;;;10.20;96.10
17521;BME280;8878;-33.370;-70.552;2023-09-12T03:41:49;92395.00;;;10.17;94.28
17521;BME280;8878;-33.370;-70.552;2023-09-12T03:44:18;92397.13;;;10.20;94.80
17521;BME280;8878;-33.370;-70.552;2023-09-12T03:46:47;92394.56;;;10.36;95.52
17521;BME280;8878;-33.370;-70.552;2023-09-12T03:49:17;92404.56;;;10.34;95.30
17521;BME280;8878;-33.370;-70.552;2023-09-12T03:51:48;92395.75;;;10.13;95.76
17521;BME280;8878;-33.370;-70.552;2023-09-12T03:54:18;92388.94;;;10.17;95.99
17521;BME280;8878;-33.370;-70.552;2023-09-12T03:56:48;92389.78;;;10.33;96.26
17521;BME280;8878;-33.370;-70.552;2023-09-12T03:59:18;92385.53;;;10.22;95.80
17521;BME280;8878;-33.370;-70.552;2023-09-12T04:01:47;92389.06;;;9.95;97.53
17521;BME280;8878;-33.370;-70.552;2023-09-12T04:04:17;92382.16;;;9.84;98.57
17521;BME280;8878;-33.370;-70.552;2023-09-12T04:06:48;92388.44;;;9.78;99.07
17521;BME280;8878;-33.370;-70.552;2023-09-12T04:09:18;92383.16;;;9.73;100.00
17521;BME280;8878;-33.370;-70.552;2023-09-12T04:11:47;92378.44;;;9.80;99.90
17521;BME280;8878;-33.370;-70.552;2023-09-12T04:14:17;92370.03;;;9.88;100.00
17521;BME280;8878;-33.370;-70.552;2023-09-12T04:16:46;92371.13;;;9.87;99.62
17521;BME280;8878;-33.370;-70.552;2023-09-12T04:19:15;92369.22;;;9.82;98.67
17521;BME280;8878;-33.370;-70.552;2023-09-12T04:21:48;92375.03;;;9.79;99.59
17521;BME280;8878;-33.370;-70.552;2023-09-12T04:24:18;92378.50;;;9.90;97.86
17521;BME280;8878;-33.370;-70.552;2023-09-12T04:26:47;92372.06;;;9.71;98.21
17521;BME280;8878;-33.370;-70.552;2023-09-12T04:29:18;92364.63;;;9.63;99.66
17521;BME280;8878;-33.370;-70.552;2023-09-12T04:31:47;92356.75;;;9.68;100.00
17521;BME280;8878;-33.370;-70.552;2023-09-12T04:34:17;92354.22;;;9.88;100.00
17521;BME280;8878;-33.370;-70.552;2023-09-12T04:36:48;92361.94;;;10.00;98.89
17521;BME280;8878;-33.370;-70.552;2023-09-12T04:39:17;92354.63;;;10.12;96.93
17521;BME280;8878;-33.370;-70.552;2023-09-12T04:41:47;92353.72;;;9.86;97.63
17521;BME280;8878;-33.370;-70.552;2023-09-12T04:44:16;92359.97;;;9.75;98.32
17521;BME280;8878;-33.370;-70.552;2023-09-12T04:46:45;92353.25;;;9.99;99.07
17521;BME280;8878;-33.370;-70.552;2023-09-12T04:49:15;92361.69;;;10.01;98.20
17521;BME280;8878;-33.370;-70.552;2023-09-12T04:51:47;92364.28;;;9.96;97.49
17521;BME280;8878;-33.370;-70.552;2023-09-12T04:54:16;92368.28;;;10.09;99.39
17521;BME280;8878;-33.370;-70.552;2023-09-12T04:56:46;92357.84;;;10.19;96.72
17521;BME280;8878;-33.370;-70.552;2023-09-12T04:59:15;92341.75;;;10.20;96.74
17521;BME280;8878;-33.370;-70.552;2023-09-12T05:01:45;92351.78;;;10.24;96.59
17521;BME280;8878;-33.370;-70.552;2023-09-12T05:04:14;92356.56;;;10.27;96.87
17521;BME280;8878;-33.370;-70.552;2023-09-12T05:06:44;92356.75;;;10.15;94.48
17521;BME280;8878;-33.370;-70.552;2023-09-12T05:09:15;92360.38;;;10.09;94.62
17521;BME280;8878;-33.370;-70.552;2023-09-12T05:11:44;92365.44;;;10.15;94.29
17521;BME280;8878;-33.370;-70.552;2023-09-12T05:14:14;92362.06;;;10.20;95.01
17521;BME280;8878;-33.370;-70.552;2023-09-12T05:16:43;92362.75;;;10.00;95.44
17521;BME280;8878;-33.370;-70.552;2023-09-12T05:19:12;92359.06;;;10.01;97.08
17521;BME280;8878;-33.370;-70.552;2023-09-12T05:21:42;92354.50;;;9.87;96.31
17521;BME280;8878;-33.370;-70.552;2023-09-12T05:24:11;92360.00;;;9.80;96.86
17521;BME280;8878;-33.370;-70.552;2023-09-12T05:26:42;92360.81;;;9.86;97.92
17521;BME280;8878;-33.370;-70.552;2023-09-12T05:29:12;92359.50;;;9.88;98.11
17521;BME280;8878;-33.370;-70.552;2023-09-12T05:31:41;92359.97;;;9.75;98.09
17521;BME280;8878;-33.370;-70.552;2023-09-12T05:34:11;92358.00;;;9.55;99.46
17521;BME280;8878;-33.370;-70.552;2023-09-12T05:36:40;92357.78;;;9.62;100.00
17521;BME280;8878;-33.370;-70.552;2023-09-12T05:39:11;92355.91;;;9.57;99.48
17521;BME280;8878;-33.370;-70.552;2023-09-12T05:41:42;92353.44;;;9.46;97.73
17521;BME280;8878;-33.370;-70.552;2023-09-12T05:44:12;92358.47;;;9.47;98.22
17521;BME280;8878;-33.370;-70.552;2023-09-12T05:46:44;92360.84;;;9.49;99.11
17521;BME280;8878;-33.370;-70.552;2023-09-12T05:49:15;92362.94;;;9.47;95.87
17521;BME280;8878;-33.370;-70.552;2023-09-12T05:51:44;92354.72;;;9.38;94.97
17521;BME280;8878;-33.370;-70.552;2023-09-12T05:54:14;92343.34;;;9.27;95.13
17521;BME280;8878;-33.370;-70.552;2023-09-12T05:56:45;92348.50;;;9.17;95.08
17521;BME280;8878;-33.370;-70.552;2023-09-12T05:59:15;92349.19;;;9.39;95.44
17521;BME280;8878;-33.370;-70.552;2023-09-12T06:01:44;92346.19;;;9.63;94.77
17521;BME280;8878;-33.370;-70.552;2023-09-12T06:04:14;92337.84;;;9.76;93.59
17521;BME280;8878;-33.370;-70.552;2023-09-12T06:06:43;92336.28;;;9.80;92.54
17521;BME280;8878;-33.370;-70.552;2023-09-12T06:09:13;92335.72;;;9.73;92.64
17521;BME280;8878;-33.370;-70.552;2023-09-12T06:11:44;92323.63;;;9.82;93.26
17521;BME280;8878;-33.370;-70.552;2023-09-12T06:14:13;92317.84;;;9.80;92.89
17521;BME280;8878;-33.370;-70.552;2023-09-12T06:16:43;92316.44;;;9.67;93.82
17521;BME280;8878;-33.370;-70.552;2023-09-12T06:19:12;92318.84;;;9.69;94.30
17521;BME280;8878;-33.370;-70.552;2023-09-12T06:21:42;92316.53;;;9.82;94.76
17521;BME280;8878;-33.370;-70.552;2023-09-12T06:24:13;92316.19;;;9.69;95.04
17521;BME280;8878;-33.370;-70.552;2023-09-12T06:26:44;92322.97;;;9.55;96.86
17521;BME280;8878;-33.370;-70.552;2023-09-12T06:29:14;92328.75;;;9.52;98.90
17521;BME280;8878;-33.370;-70.552;2023-09-12T06:31:43;92328.19;;;9.45;99.25
17521;BME280;8878;-33.370;-70.552;2023-09-12T06:34:13;92322.66;;;9.46;99.72
17521;BME280;8878;-33.370;-70.552;2023-09-12T06:36:42;92327.34;;;9.39;98.37
17521;BME280;8878;-33.370;-70.552;2023-09-12T06:39:13;92325.81;;;9.48;98.43
17521;BME280;8878;-33.370;-70.552;2023-09-12T06:41:44;92327.34;;;9.39;99.59
17521;BME280;8878;-33.370;-70.552;2023-09-12T06:44:14;92325.72;;;9.33;98.63
17521;BME280;8878;-33.370;-70.552;2023-09-12T06:46:43;92324.41;;;9.30;97.73
17521;BME280;8878;-33.370;-70.552;2023-09-12T06:49:12;92327.69;;;9.53;96.33
17521;BME280;8878;-33.370;-70.552;2023-09-12T06:51:42;92324.56;;;9.56;94.45
17521;BME280;8878;-33.370;-70.552;2023-09-12T06:54:11;92327.25;;;9.66;93.26
17521;BME280;8878;-33.370;-70.552;2023-09-12T06:56:41;92332.56;;;9.76;92.84
17521;BME280;8878;-33.370;-70.552;2023-09-12T06:59:14;92329.34;;;9.64;91.72
17521;BME280;8878;-33.370;-70.552;2023-09-12T07:01:43;92335.38;;;9.59;92.09
17521;BME280;8878;-33.370;-70.552;2023-09-12T07:04:13;92330.88;;;9.60;92.45
17521;BME280;8878;-33.370;-70.552;2023-09-12T07:06:42;92315.72;;;9.77;93.00
17521;BME280;8878;-33.370;-70.552;2023-09-12T07:09:12;92310.22;;;9.89;92.85
17521;BME280;8878;-33.370;-70.552;2023-09-12T07:11:41;92300.97;;;9.81;92.95
17521;BME280;8878;-33.370;-70.552;2023-09-12T07:14:13;92305.13;;;9.67;94.32
17521;BME280;8878;-33.370;-70.552;2023-09-12T07:16:42;92297.53;;;9.75;94.41
17521;BME280;8878;-33.370;-70.552;2023-09-12T07:19:11;92303.91;;;9.90;94.57
17521;BME280;8878;-33.370;-70.552;2023-09-12T07:21:41;92286.56;;;9.99;95.02
17521;BME280;8878;-33.370;-70.552;2023-09-12T07:24:10;92293.66;;;9.93;94.75
17521;BME280;8878;-33.370;-70.552;2023-09-12T07:26:40;92290.66;;;9.74;95.73
17521;BME280;8878;-33.370;-70.552;2023-09-12T07:29:09;92282.91;;;9.53;96.59
17521;BME280;8878;-33.370;-70.552;2023-09-12T07:31:41;92284.69;;;9.37;100.00
17521;BME280;8878;-33.370;-70.552;2023-09-12T07:34:11;92288.53;;;9.19;100.00
17521;BME280;8878;-33.370;-70.552;2023-09-12T07:36:41;92281.34;;;9.10;99.38
17521;BME280;8878;-33.370;-70.552;2023-09-12T07:39:11;92284.84;;;9.20;99.17
17521;BME280;8878;-33.370;-70.552;2023-09-12T07:41:40;92280.69;;;9.29;98.58
17521;BME280;8878;-33.370;-70.552;2023-09-12T07:44:09;92275.34;;;9.14;97.97
17521;BME280;8878;-33.370;-70.552;2023-09-12T07:46:44;92276.66;;;9.17;100.00
17521;BME280;8878;-33.370;-70.552;2023-09-12T07:49:13;92276.94;;;9.20;100.00
17521;BME280;8878;-33.370;-70.552;2023-09-12T07:51:42;92271.88;;;9.09;100.00
17521;BME280;8878;-33.370;-70.552;2023-09-12T07:54:12;92271.41;;;8.80;100.00
17521;BME280;8878;-33.370;-70.552;2023-09-12T07:56:42;92280.78;;;8.71;100.00
17521;BME280;8878;-33.370;-70.552;2023-09-12T07:59:11;92289.16;;;8.62;100.00
17521;BME280;8878;-33.370;-70.552;2023-09-12T08:01:43;92291.53;;;8.64;100.00
17521;BME280;8878;-33.370;-70.552;2023-09-12T08:04:12;92286.81;;;8.66;100.00
17521;BME280;8878;-33.370;-70.552;2023-09-12T08:06:44;92292.00;;;8.61;100.00
17521;BME280;8878;-33.370;-70.552;2023-09-12T08:09:14;92292.31;;;8.64;100.00
17521;BME280;8878;-33.370;-70.552;2023-09-12T08:11:44;92277.91;;;8.40;100.00
17521;BME280;8878;-33.370;-70.552;2023-09-12T08:14:13;92291.69;;;8.52;100.00
17521;BME280;8878;-33.370;-70.552;2023-09-12T08:16:44;92282.00;;;8.58;100.00
17521;BME280;8878;-33.370;-70.552;2023-09-12T08:19:13;92277.53;;;8.58;100.00
17521;BME280;8878;-33.370;-70.552;2023-09-12T08:21:43;92270.91;;;8.51;100.00
17521;BME280;8878;-33.370;-70.552;2023-09-12T08:24:13;92279.91;;;8.60;100.00
17521;BME280;8878;-33.370;-70.552;2023-09-12T08:26:43;92279.03;;;8.49;100.00
17521;BME280;8878;-33.370;-70.552;2023-09-12T08:29:12;92282.81;;;8.58;100.00
17521;BME280;8878;-33.370;-70.552;2023-09-12T08:31:43;92274.50;;;8.72;100.00
17521;BME280;8878;-33.370;-70.552;2023-09-12T08:34:14;92277.97;;;8.77;100.00
17521;BME280;8878;-33.370;-70.552;2023-09-12T08:36:43;92272.41;;;8.74;100.00
17521;BME280;8878;-33.370;-70.552;2023-09-12T08:39:14;92269.78;;;8.74;100.00
17521;BME280;8878;-33.370;-70.552;2023-09-12T08:41:44;92262.56;;;8.59;100.00
17521;BME280;8878;-33.370;-70.552;2023-09-12T08:44:14;92260.28;;;8.41;100.00
17521;BME280;8878;-33.370;-70.552;2023-09-12T08:46:46;92253.66;;;8.33;100.00
17521;BME280;8878;-33.370;-70.552;2023-09-12T08:49:16;92257.66;;;8.41;100.00
17521;BME280;8878;-33.370;-70.552;2023-09-12T08:51:46;92259.06;;;8.53;100.00
17521;BME280;8878;-33.370;-70.552;2023-09-12T08:54:15;92257.78;;;8.56;100.00
17521;BME280;8878;-33.370;-70.552;2023-09-12T08:56:45;92256.50;;;8.58;100.00
17521;BME280;8878;-33.370;-70.552;2023-09-12T08:59:15;92261.59;;;8.70;100.00
17521;BME280;8878;-33.370;-70.552;2023-09-12T09:01:46;92262.78;;;8.52;100.00
17521;BME280;8878;-33.370;-70.552;2023-09-12T09:04:18;92270.31;;;8.17;100.00
17521;BME280;8878;-33.370;-70.552;2023-09-12T09:06:50;92270.97;;;8.07;100.00
17521;BME280;8878;-33.370;-70.552;2023-09-12T09:09:21;92276.44;;;8.01;100.00
17521;BME280;8878;-33.370;-70.552;2023-09-12T09:11:51;92279.63;;;8.03;100.00
17521;BME280;8878;-33.370;-70.552;2023-09-12T09:14:20;92276.47;;;8.06;100.00
17521;BME280;8878;-33.370;-70.552;2023-09-12T09:16:52;92278.50;;;7.99;100.00
17521;BME280;8878;-33.370;-70.552;2023-09-12T09:19:22;92288.41;;;7.92;100.00
17521;BME280;8878;-33.370;-70.552;2023-09-12T09:21:51;92280.28;;;7.93;100.00
17521;BME280;8878;-33.370;-70.552;2023-09-12T09:24:33;92290.88;;;8.03;100.00
17521;BME280;8878;-33.370;-70.552;2023-09-12T09:27:03;92292.28;;;8.11;100.00
17521;BME280;8878;-33.370;-70.552;2023-09-12T09:29:46;92301.31;;;7.93;100.00
17521;BME280;8878;-33.370;-70.552;2023-09-12T09:32:19;92307.72;;;8.02;100.00
17521;BME280;8878;-33.370;-70.552;2023-09-12T09:34:49;92304.34;;;8.07;100.00
17521;BME280;8878;-33.370;-70.552;2023-09-12T09:37:19;92314.25;;;8.00;100.00
17521;BME280;8878;-33.370;-70.552;2023-09-12T09:39:48;92322.13;;;8.00;100.00
17521;BME280;8878;-33.370;-70.552;2023-09-12T09:42:19;92321.47;;;8.09;100.00
17521;BME280;8878;-33.370;-70.552;2023-09-12T09:44:49;92330.34;;;7.81;100.00
17521;BME280;8878;-33.370;-70.552;2023-09-12T09:47:20;92334.53;;;7.82;100.00
17521;BME280;8878;-33.370;-70.552;2023-09-12T09:49:52;92341.44;;;7.89;100.00
17521;BME280;8878;-33.370;-70.552;2023-09-12T09:52:26;92330.13;;;7.66;100.00
17521;BME280;8878;-33.370;-70.552;2023-09-12T09:54:55;92329.56;;;7.64;100.00
17521;BME280;8878;-33.370;-70.552;2023-09-12T09:57:26;92338.06;;;7.71;100.00
17521;BME280;8878;-33.370;-70.552;2023-09-12T09:59:56;92336.84;;;7.79;100.00
17521;BME280;8878;-33.370;-70.552;2023-09-12T10:02:27;92341.25;;;7.73;100.00
17521;BME280;8878;-33.370;-70.552;2023-09-12T10:04:59;92341.00;;;7.75;100.00
17521;BME280;8878;-33.370;-70.552;2023-09-12T10:07:33;92338.97;;;7.82;100.00
17521;BME280;8878;-33.370;-70.552;2023-09-12T10:10:04;92342.47;;;7.88;100.00
17521;BME280;8878;-33.370;-70.552;2023-09-12T10:12:35;92341.56;;;7.99;100.00
17521;BME280;8878;-33.370;-70.552;2023-09-12T10:15:06;92339.88;;;8.31;100.00
17521;BME280;8878;-33.370;-70.552;2023-09-12T10:17:40;92338.66;;;8.44;100.00
17521;BME280;8878;-33.370;-70.552;2023-09-12T10:20:16;92350.63;;;8.56;100.00
17521;BME280;8878;-33.370;-70.552;2023-09-12T10:23:05;92347.03;;;8.68;100.00
17521;BME280;8878;-33.370;-70.552;2023-09-12T10:25:39;92338.06;;;8.63;100.00
17521;BME280;8878;-33.370;-70.552;2023-09-12T10:28:10;92340.69;;;8.63;100.00
17521;BME280;8878;-33.370;-70.552;2023-09-12T10:30:40;92345.00;;;8.75;100.00
17521;BME280;8878;-33.370;-70.552;2023-09-12T10:33:14;92345.00;;;8.75;100.00
17521;BME280;8878;-33.370;-70.552;2023-09-12T10:35:45;92347.94;;;8.51;100.00
17521;BME280;8878;-33.370;-70.552;2023-09-12T10:38:17;92351.50;;;8.40;100.00
17521;BME280;8878;-33.370;-70.552;2023-09-12T10:40:48;92350.38;;;8.58;100.00
17521;BME280;8878;-33.370;-70.552;2023-09-12T10:43:18;92350.25;;;8.75;100.00
17521;BME280;8878;-33.370;-70.552;2023-09-12T10:45:49;92362.97;;;8.83;100.00
17521;BME280;8878;-33.370;-70.552;2023-09-12T10:48:20;92367.78;;;8.91;100.00
17521;BME280;8878;-33.370;-70.552;2023-09-12T10:50:50;92362.88;;;8.73;100.00
17521;BME280;8878;-33.370;-70.552;2023-09-12T10:53:19;92367.75;;;8.59;100.00
17521;BME280;8878;-33.370;-70.552;2023-09-12T10:55:59;92360.97;;;8.41;100.00
17521;BME280;8878;-33.370;-70.552;2023-09-12T10:58:30;92371.06;;;8.49;100.00
17521;BME280;8878;-33.370;-70.552;2023-09-12T11:01:23;92366.38;;;8.51;100.00
17521;BME280;8878;-33.370;-70.552;2023-09-12T11:03:55;92370.59;;;8.31;100.00
17521;BME280;8878;-33.370;-70.552;2023-09-12T11:06:29;92370.09;;;8.34;100.00
17521;BME280;8878;-33.370;-70.552;2023-09-12T11:09:17;92370.09;;;8.34;100.00
17521;BME280;8878;-33.370;-70.552;2023-09-12T11:11:47;92376.91;;;8.56;100.00
17521;BME280;8878;-33.370;-70.552;2023-09-12T11:14:17;92387.28;;;8.68;100.00
17521;BME280;8878;-33.370;-70.552;2023-09-12T11:19:50;92378.59;;;8.68;100.00
17521;BME280;8878;-33.370;-70.552;2023-09-12T11:22:27;92393.75;;;8.82;100.00
17521;BME280;8878;-33.370;-70.552;2023-09-12T11:24:58;92391.38;;;8.81;100.00
17521;BME280;8878;-33.370;-70.552;2023-09-12T11:27:32;92393.16;;;8.75;100.00
17521;BME280;8878;-33.370;-70.552;2023-09-12T11:30:13;92401.03;;;8.48;100.00
17521;BME280;8878;-33.370;-70.552;2023-09-12T11:32:46;92408.25;;;8.36;100.00
17521;BME280;8878;-33.370;-70.552;2023-09-12T11:35:21;92412.31;;;8.27;100.00
17521;BME280;8878;-33.370;-70.552;2023-09-12T11:37:53;92402.66;;;8.11;100.00
17521;BME280;8878;-33.370;-70.552;2023-09-12T11:40:24;92411.16;;;8.18;100.00
17521;BME280;8878;-33.370;-70.552;2023-09-12T11:42:54;92414.06;;;8.38;100.00
17521;BME280;8878;-33.370;-70.552;2023-09-12T11:45:24;92413.19;;;8.54;100.00
17521;BME280;8878;-33.370;-70.552;2023-09-12T11:47:54;92412.78;;;8.68;100.00
17521;BME280;8878;-33.370;-70.552;2023-09-12T11:50:30;92412.97;;;8.61;100.00
17521;BME280;8878;-33.370;-70.552;2023-09-12T12:13:49;92422.72;;;8.17;100.00
17521;BME280;8878;-33.370;-70.552;2023-09-12T12:16:18;92430.78;;;8.32;100.00
17521;BME280;8878;-33.370;-70.552;2023-09-12T12:18:47;92428.31;;;8.42;100.00
17521;BME280;8878;-33.370;-70.552;2023-09-12T12:21:21;92431.50;;;8.44;100.00
17521;BME280;8878;-33.370;-70.552;2023-09-12T12:23:59;92436.53;;;8.29;100.00
17521;BME280;8878;-33.370;-70.552;2023-09-12T12:26:30;92438.28;;;8.02;100.00
17521;BME280;8878;-33.370;-70.552;2023-09-12T12:29:01;92445.06;;;7.98;100.00
17521;BME280;8878;-33.370;-70.552;2023-09-12T12:31:31;92453.50;;;8.00;100.00
17521;BME280;8878;-33.370;-70.552;2023-09-12T12:34:00;92464.69;;;8.12;100.00
17521;BME280;8878;-33.370;-70.552;2023-09-12T12:36:30;92463.66;;;8.13;100.00
17521;BME280;8878;-33.370;-70.552;2023-09-12T12:39:00;92461.38;;;8.00;100.00
17521;BME280;8878;-33.370;-70.552;2023-09-12T12:41:30;92464.91;;;8.10;100.00
17521;BME280;8878;-33.370;-70.552;2023-09-12T12:44:02;92473.91;;;7.76;100.00
17521;BME280;8878;-33.370;-70.552;2023-09-12T12:46:32;92478.69;;;7.62;100.00
17521;BME280;8878;-33.370;-70.552;2023-09-12T12:49:01;92482.34;;;7.61;100.00
17521;BME280;8878;-33.370;-70.552;2023-09-12T12:51:30;92485.53;;;7.63;100.00
17521;BME280;8878;-33.370;-70.552;2023-09-12T12:54:04;92485.69;;;7.73;100.00
17521;BME280;8878;-33.370;-70.552;2023-09-12T12:56:34;92489.41;;;7.77;100.00
17521;BME280;8878;-33.370;-70.552;2023-09-12T12:59:07;92498.72;;;7.85;100.00
17521;BME280;8878;-33.370;-70.552;2023-09-12T13:01:37;92489.66;;;7.76;100.00
17521;BME280;8878;-33.370;-70.552;2023-09-12T13:04:07;92493.06;;;7.76;100.00
17521;BME280;8878;-33.370;-70.552;2023-09-12T13:06:37;92501.13;;;7.70;100.00
17521;BME280;8878;-33.370;-70.552;2023-09-12T13:09:07;92501.34;;;7.68;100.00
17521;BME280;8878;-33.370;-70.552;2023-09-12T13:11:38;92508.44;;;7.84;100.00
17521;BME280;8878;-33.370;-70.552;2023-09-12T13:14:09;92516.25;;;7.79;100.00
17521;BME280;8878;-33.370;-70.552;2023-09-12T13:16:39;92513.53;;;7.74;100.00
17521;BME280;8878;-33.370;-70.552;2023-09-12T13:19:09;92527.09;;;7.66;100.00
17521;BME280;8878;-33.370;-70.552;2023-09-12T13:21:39;92521.97;;;7.76;100.00
17521;BME280;8878;-33.370;-70.552;2023-09-12T13:24:09;92528.75;;;7.72;100.00
17521;BME280;8878;-33.370;-70.552;2023-09-12T13:26:40;92523.09;;;7.80;100.00